Serra Preta, Brazil
Current Conditions -  °F | °C
As of 11:00 AM on Wednesday 26 Nov 2014 (Local Time) from SBSV Reporting Station
Scattered Clouds Scattered Clouds  
Wind Chill: 82°   Ceiling: Unl
Heat Index: 86°   Visibility: 6mi
Dew Point: 70°   Wind: 13mph
Humidity: 66%   Direction: 70°ENE
Pressure: 29.97"   Gusts: NA
Location:  12.16°S, 39.33°W
Report Text: SBSV 261400Z 07011KT 9999 SCT017 28/21 Q1015
Loading
Personal Weather Stations






























Interactive Weather Map New forecast layout! Learn more

10-Day Weather Forecast

Advertisements
Track Severe Weather on mobile